• Join FlightAware (Why Join?)
  • Login
  • US Flag 
11:52PM EDT


 

Airport Tracker/Info


-or-


 

Live Flight TrackerFlight Track Log ✈ SKW5598 ✈ 29-Apr-2012 ✈ KSFO - KSAT

Flight Track Log - Related Links

Times and Time Zones

All times are in EDT time to prevent confusion due to time zone crossing. See the SKW5598 flight status page for this flight to view local times or setup timezone preferences in your user account.

Time Position Orientation Groundspeed Altitude Reporting Facility
EDT Latitude Longitude Course Direction KTS MPH feet Rate Location/Type
02:04PM 37.6333 -122.4167 293° West 166 191 1,200  Level Northern Cal TRACON
02:05PM 37.6500 -122.4667 313° West 215 247 3,100 2,220 Climbing Northern Cal TRACON
02:06PM 37.7000 -122.5333 243° Southwest 233 268 5,500 2,280 Climbing Northern Cal TRACON
02:07PM 37.6667 -122.6167 164° South 283 326 7,700 2,040 Climbing Northern Cal TRACON
02:08PM 37.5892 -122.5881 130° Southeast 302 348 9,300 2,160 Climbing Oakland Center
02:09PM 37.5400 -122.5136 131° Southeast 315 362 11,700 2,040 Climbing Oakland Center
02:10PM 37.4806 -122.4261 129° Southeast 325 374 13,400 1,860 Climbing Oakland Center
02:11PM 37.4192 -122.3308 129° Southeast 338 389 15,500 1,980 Climbing Oakland Center
02:12PM 37.3578 -122.2356 129° Southeast 345 397 17,400 1,980 Climbing Oakland Center
02:13PM 37.2919 -122.1325 131° Southeast 358 412 19,500 1,800 Climbing Oakland Center
02:14PM 37.2283 -122.0403 129° Southeast 374 430 21,000 1,560 Climbing Oakland Center
02:15PM 37.1603 -121.9350 130° Southeast 384 442 22,700 1,680 Climbing Oakland Center
02:16PM 37.0903 -121.8300 130° Southeast 389 448 24,400 1,500 Climbing Oakland Center
02:17PM 37.0178 -121.7200 130° Southeast 389 448 25,800 1,320 Climbing Oakland Center
02:18PM 36.9456 -121.6128 130° Southeast 394 453 27,100 1,320 Climbing Oakland Center
02:19PM 36.8711 -121.5031 129° Southeast 406 467 28,500 1,260 Climbing Oakland Center
02:20PM 36.7922 -121.3806 130° Southeast 411 473 29,700 1,140 Climbing Oakland Center
02:21PM 36.7175 -121.2689 130° Southeast 411 473 30,800 960 Climbing Oakland Center
02:22PM 36.6406 -121.1547 130° Southeast 416 479 31,700 780 Climbing Oakland Center
02:23PM 36.5633 -121.0408 130° Southeast 421 484 32,400 540 Climbing Oakland Center
02:24PM 36.4819 -120.9219 130° Southeast 434 499 32,800 720 Climbing Oakland Center
02:25PM 36.4006 -120.8033 130° Southeast 445 512 33,900 1,200 Climbing Oakland Center
02:26PM 36.3211 -120.6847 131° Southeast 450 518 35,300 1,260 Climbing Oakland Center
02:27PM 36.2456 -120.5769 130° Southeast 439 505 36,500 900 Climbing Oakland Center
02:28PM 36.1703 -120.4642 131° Southeast 428 493 37,100 540 Climbing Oakland Center
02:29PM 36.1025 -120.3675 131° Southeast 433 498 37,500 420 Climbing Los Angeles Center
02:30PM 36.0269 -120.2608 130° Southeast 438 504 37,900 360 Climbing Los Angeles Center
02:31PM 35.9514 -120.1492 131° Southeast 438 504 38,300 360 Climbing Los Angeles Center
02:32PM 35.8736 -120.0403 131° Southeast 426 490 38,700 300 Climbing Los Angeles Center
02:33PM 35.7956 -119.9289 129° Southeast 421 484 39,000 120 Climbing Los Angeles Center
02:34PM 35.7219 -119.8178 132° Southeast 421 484 39,000  Level Los Angeles Center
02:35PM 35.6417 -119.7069 130° Southeast 421 484 39,000  Level Los Angeles Center
02:36PM 35.5617 -119.5911 132° Southeast 426 490 39,000  Level Los Angeles Center
02:37PM 35.4792 -119.4778 130° Southeast 426 490 39,000  Level Los Angeles Center
02:38PM 35.3969 -119.3597 119° Southeast 432 497 39,000  Level Los Angeles Center
02:39PM 35.3497 -119.2536 114° Southeast 456 525 39,000  Level Los Angeles Center
02:40PM 35.2872 -119.0806 113° Southeast 471 542 39,000  Level Los Angeles Center
02:41PM 35.2344 -118.9311 114° Southeast 464 534 39,000  Level Los Angeles Center
02:42PM 35.1814 -118.7872 115° Southeast 515 593 39,000  Level Los Angeles Center
02:43PM 35.1281 -118.6458 114° Southeast 482 555 39,000  Level Los Angeles Center
02:44PM 35.0744 -118.4994 115° Southeast 468 539 39,000  Level Los Angeles Center
02:45PM 35.0269 -118.3764 115° Southeast 456 525 39,000  Level Los Angeles Center
02:46PM 34.9711 -118.2303 115° Southeast 461 531 39,000  Level Los Angeles Center
02:47PM 34.9131 -118.0819 115° Southeast 472 543 39,000  Level Los Angeles Center
02:48PM 34.8567 -117.9361 115° Southeast 472 543 39,000  Level Los Angeles Center
02:49PM 34.7983 -117.7858 115° Southeast 477 549 39,000  Level Los Angeles Center
02:50PM 34.7400 -117.6328 115° Southeast 477 549 39,000  Level Los Angeles Center
02:51PM 34.6833 -117.4828 115° Southeast 483 556 39,000  Level Los Angeles Center
02:52PM 34.6183 -117.3153 116° Southeast 493 567 39,000  Level Los Angeles Center
02:53PM 34.5569 -117.1656 115° Southeast 493 567 39,000  Level Los Angeles Center
02:54PM 34.4997 -117.0136 115° Southeast 488 562 39,000  Level Los Angeles Center
02:55PM 34.4403 -116.8617 116° Southeast 488 562 39,000  Level Los Angeles Center
02:56PM 34.3806 -116.7128 116° Southeast 488 562 39,000  Level Los Angeles Center
02:57PM 34.3206 -116.5639 116° Southeast 488 562 39,000  Level Los Angeles Center
02:58PM 34.2606 -116.4153 115° Southeast 488 562 39,000  Level Los Angeles Center
02:59PM 34.2044 -116.2694 115° Southeast 488 562 39,000  Level Los Angeles Center
03:00PM 34.1461 -116.1211 113° Southeast 488 562 39,000  Level Los Angeles Center
03:01PM 34.0939 -115.9708 116° Southeast 488 562 39,000  Level Los Angeles Center
03:02PM 34.0331 -115.8228 116° Southeast 483 556 39,000  Level Los Angeles Center
03:03PM 33.9742 -115.6753 116° Southeast 483 556 39,000  Level Los Angeles Center
03:04PM 33.9150 -115.5306 117° Southeast 483 556 39,000  Level Los Angeles Center
03:05PM 33.8539 -115.3833 116° Southeast 488 562 39,000  Level Los Angeles Center
03:06PM 33.7922 -115.2339 116° Southeast 488 562 39,000  Level Los Angeles Center
03:07PM 33.7306 -115.0847 117° Southeast 488 562 39,000  Level Los Angeles Center
03:08PM 33.6686 -114.9381 116° Southeast 488 562 39,000  Level Los Angeles Center
03:09PM 33.6153 -114.8042 107° East 488 562 39,000  Level Los Angeles Center
03:10PM 33.5736 -114.6453 101° East 488 562 39,000  Level Los Angeles Center
03:11PM 33.5467 -114.4789 100° East 494 568 39,000  Level Los Angeles Center
03:12PM 33.5175 -114.2906 102° East 509 586 39,000  Level Albuquerque Center
03:13PM 33.4881 -114.1233 102° East 512 589 39,000  Level Albuquerque Center
03:14PM 33.4583 -113.9564 102° East 513 590 39,000  Level Albuquerque Center
03:15PM 33.4211 -113.7550 102° East 516 594 39,000  Level Albuquerque Center
03:16PM 33.3908 -113.5881 102° East 514 592 39,000  Level Albuquerque Center
03:17PM 33.3606 -113.4203 103° East 515 593 39,000  Level Albuquerque Center
03:18PM 33.3292 -113.2522 103° East 517 595 39,000  Level Albuquerque Center
03:19PM 33.2975 -113.0833 103° East 519 597 39,000  Level Albuquerque Center
03:20PM 33.2653 -112.9167 103° East 517 595 39,000  Level Albuquerque Center
03:21PM 33.2275 -112.7169 103° East 514 592 39,000  Level Albuquerque Center
03:22PM 33.1953 -112.5467 103° East 515 593 39,000  Level Albuquerque Center
03:23PM 33.1619 -112.3800 103° East 511 588 39,000  Level Albuquerque Center
03:24PM 33.1292 -112.2119 103° East 514 592 39,000  Level Albuquerque Center
03:25PM 33.0967 -112.0436 103° East 516 594 39,000  Level Albuquerque Center
03:26PM 33.0636 -111.8744 103° East 517 595 39,000  Level Albuquerque Center
03:27PM 33.0308 -111.7067 103° East 516 594 39,000  Level Albuquerque Center
03:28PM 32.9908 -111.5058 104° East 515 593 39,000  Level Albuquerque Center
03:29PM 32.9564 -111.3386 103° East 514 592 39,000  Level Albuquerque Center
03:30PM 32.9233 -111.1714 104° East 513 590 39,000  Level Albuquerque Center
03:31PM 32.8892 -111.0039 104° East 514 592 39,000  Level Albuquerque Center
03:33PM 32.8542 -110.8381 104° East 513 590 39,000  Level Albuquerque Center
03:34PM 32.8189 -110.6642 104° East 512 589 39,000  Level Albuquerque Center
03:35PM 32.7850 -110.5022 105° East 511 588 39,000  Level Albuquerque Center
03:36PM 32.7497 -110.3411 104° East 511 588 39,000  Level Albuquerque Center
03:37PM 32.7089 -110.1475 104° East 510 587 39,000  Level Albuquerque Center
03:38PM 32.6753 -109.9875 105° East 508 585 39,000  Level Albuquerque Center
03:39PM 32.6406 -109.8294 105° East 504 580 39,000  Level Albuquerque Center
03:40PM 32.6056 -109.6711 105° East 503 579 39,000  Level Albuquerque Center
03:41PM 32.5619 -109.4803 104° East 506 582 39,000  Level Albuquerque Center
03:42PM 32.5278 -109.3225 105° East 504 580 39,000  Level Albuquerque Center
03:43PM 32.4936 -109.1672 105° East 500 575 39,000  Level Albuquerque Center
03:44PM 32.4522 -108.9792 105° East 500 575 39,000  Level Albuquerque Center
03:45PM 32.4164 -108.8231 105° East 500 575 39,000  Level Albuquerque Center
03:46PM 32.3817 -108.6672 105° East 498 573 39,000  Level Albuquerque Center
03:47PM 32.3467 -108.5117 105° East 497 572 39,000  Level Albuquerque Center
03:48PM 32.3042 -108.3281 105° East 497 572 39,000  Level Albuquerque Center
03:49PM 32.2675 -108.1717 105° East 496 571 39,000  Level Albuquerque Center
03:50PM 32.2314 -108.0136 105° East 498 573 39,000  Level Albuquerque Center
03:51PM 32.1961 -107.8594 106° East 495 570 39,000  Level Albuquerque Center
03:52PM 32.1519 -107.6731 105° East 495 570 39,000  Level Albuquerque Center
03:53PM 32.1158 -107.5178 105° East 495 570 39,000  Level Albuquerque Center
03:54PM 32.0806 -107.3644 106° East 493 567 39,000  Level Albuquerque Center
03:55PM 32.0425 -107.2131 105° East 491 565 39,000 -60 Level Albuquerque Center
03:56PM 32.0003 -107.0292 106° East 489 563 38,900  Descending Albuquerque Center
03:57PM 31.9639 -106.8781 106° East 487 560 39,000  Climbing Albuquerque Center
03:59PM 31.9267 -106.7267 106° East 485 558 39,000 -60 Level Albuquerque Center
04:00PM 31.8892 -106.5753 106° East 486 559 38,900 -60 Descending Albuquerque Center
04:01PM 31.8500 -106.4169 106° East 490 564 38,900  Level Albuquerque Center
04:02PM 31.8044 -106.2331 107° East 492 566 39,000  Climbing Albuquerque Center
04:03PM 31.7664 -106.0833 107° East 484 557 39,000  Level Albuquerque Center
04:04PM 31.7283 -105.9333 106° East 481 554 39,000  Level Albuquerque Center
04:05PM 31.6908 -105.7822 107° East 481 554 39,000  Level Albuquerque Center
04:06PM 31.6522 -105.6322 106° East 481 554 39,000  Level Albuquerque Center
04:07PM 31.6067 -105.4508 106° East 482 555 39,000  Level Albuquerque Center
04:08PM 31.5692 -105.2997 107° East 481 554 39,000  Level Albuquerque Center
04:09PM 31.5308 -105.1497 106° East 479 551 39,000  Level Albuquerque Center
04:10PM 31.4928 -104.9986 107° East 480 552 39,000  Level Albuquerque Center
04:11PM 31.4542 -104.8481 106° East 480 552 39,000  Level Albuquerque Center
04:12PM 31.4161 -104.6978 107° East 479 551 39,000  Level Albuquerque Center
04:13PM 31.3694 -104.5181 107° East 479 551 39,000  Level Albuquerque Center
04:14PM 31.3308 -104.3694 108° East 478 550 39,000  Level Albuquerque Center
04:15PM 31.2906 -104.2206 107° East 478 550 39,000 -60 Level Albuquerque Center
04:16PM 31.2517 -104.0725 107° East 477 549 38,900  Descending Albuquerque Center
04:17PM 31.2119 -103.9244 108° East 477 549 39,000  Climbing Albuquerque Center
04:18PM 31.1658 -103.7578 108° East 479 551 39,000  Level Albuquerque Center
04:19PM 31.1247 -103.6094 108° East 481 554 39,000  Level Albuquerque Center
04:20PM 31.0836 -103.4625 108° East 480 552 39,000  Level Albuquerque Center
04:21PM 31.0350 -103.2850 107° East 480 552 39,000  Level Albuquerque Center
04:22PM 30.9956 -103.1381 108° East 479 551 39,000 -60 Level Albuquerque Center
04:24PM 30.9556 -102.9939 107° East 474 545 38,900  Descending Albuquerque Center
04:25PM 30.9167 -102.8461 106° East 477 549 39,000  Climbing Albuquerque Center
04:26PM 30.8714 -102.6683 108° East 480 552 39,000  Level Albuquerque Center
04:27PM 30.8372 -102.5464 107° East 482 555 39,000  Level Houston Center
04:28PM 30.7992 -102.3978 107° East 476 548 39,000  Level Houston Center
04:29PM 30.7608 -102.2514 107° East 476 548 39,000  Level Houston Center
04:30PM 30.7222 -102.1050 108° East 476 548 39,000  Level Houston Center
04:31PM 30.6767 -101.9389 107° East 476 548 39,000  Level Houston Center
04:32PM 30.6381 -101.7881 107° East 476 548 39,000  Level Houston Center
04:33PM 30.6008 -101.6447 106° East 476 548 39,000  Level Houston Center
04:34PM 30.5669 -101.5114 108° East 476 548 39,000  Level Houston Center
04:35PM 30.5256 -101.3656 107° East 476 548 39,000  Level Houston Center
04:36PM 30.4864 -101.2125 108° East 476 548 39,000  Level Houston Center
04:37PM 30.4447 -101.0644 108° East 476 548 39,000  Level Houston Center
04:38PM 30.4031 -100.9164 108° East 476 548 39,000 -600 Level Houston Center
04:39PM 30.3611 -100.7658 109° East 476 548 37,800 -2,100 Descending Houston Center
04:40PM 30.3136 -100.6031 108° East 481 554 34,900 -2,700 Descending Houston Center
04:41PM 30.2714 -100.4531 107° East 486 559 32,500 -2,400 Descending Houston Center
04:42PM 30.2294 -100.2958 111° Southeast 497 572 30,200 -2,400 Descending Houston Center
04:43PM 30.1822 -100.1503 104° East 497 572 27,700 -2,520 Descending Houston Center
04:44PM 30.1483 -99.9939 109° East 490 564 25,200 -2,400 Descending Houston Center
04:45PM 30.1139 -99.8761 109° East 480 552 22,900 -2,700 Descending Houston Center
04:46PM 30.0719 -99.7383 107° East 459 528 19,900 -3,000 Descending Houston Center
04:47PM 30.0361 -99.6064 109° East 445 512 16,900 -3,000 Descending Houston Center
04:48PM 29.9997 -99.4814 109° East 422 486 13,900 -2,280 Descending Houston Center
04:49PM 29.9647 -99.3636 111° Southeast 402 463 12,400 -1,320 Descending Houston Center
04:49PM 29.9325 -99.2656 109° East 395 455 11,700 -1,080 Descending Houston Center
04:50PM 29.9028 -99.1675 114° Southeast 386 444 10,800 -960 Descending Houston Center
04:51PM 29.8606 -99.0592 113° Southeast 374 430 10,000 -420 Descending Houston Center
04:52PM 29.8225 -98.9561 112° Southeast 328 377 10,000 -720 Level Houston Center
04:53PM 29.7917 -98.8703 113° Southeast 289 333 8,600 -1,200 Descending Houston Center
04:54PM 29.7622 -98.7917 123° Southeast 270 311 7,600 -1,200 Descending Houston Center
04:55PM 29.7242 -98.7244 132° Southeast 249 287 6,300 -1,500 Descending Houston Center
04:56PM 29.6831 -98.6717 133° Southeast 245 282 4,800 -1,380 Descending Houston Center
04:57PM 29.6381 -98.6161 130° Southeast 235 270 3,700 -1,140 Descending Houston Center
04:58PM 29.5989 -98.5633 132° Southeast 205 236 2,500 -900 Descending Houston Center
04:59PM 29.5717 -98.5281 132° Southeast 135 155 1,800 -720 Descending Houston Center
05:00PM 29.5481 -98.4978 139° Southeast 129 148 1,100 -480 Descending Houston Center
05:02PM 29.5381 -98.4878 139° Southeast 110 127 800 -240 Descending Houston Center